HUN1ZT EKCH-EDDF
Flight info
| Callsign | HUN1ZT |
|---|---|
| Flight time | 1h 10m |
| Altitude | 38000 |
| Route | NEXEN T503 GIMRU DCT MICOS DCT RIMET/N0446F310 T157 KOKEB/N0398F230 T157 KERAX KERAX5A |
| Aircraft | A21N/M-SDE2E3FGHIJ1RWXY/LB1 |
Departure
| Time | 2026-05-04 14:56 |
|---|---|
| Airport | Copenhagen Kastrup Airport (EKCH) |
Arrival
| Time | 2026-05-04 16:06 |
|---|---|
| Airport | Frankfurt Main Airport (EDDF) |
| Time | Latitude | Longitude | Altitude | Speed | Heading |
|---|---|---|---|---|---|
| 2026-05-04 14:03 | 55.62852 | 12.64254 | 23 ft | 0 kts | 99° |
| 2026-05-04 14:46 | 55.62854 | 12.64233 | 22 ft | 1 kts | 100° |
| 2026-05-04 14:47 | 55.62856 | 12.64192 | 22 ft | 4 kts | 79° |
| 2026-05-04 14:47 | 55.62848 | 12.64148 | 24 ft | 3 kts | 66° |
| 2026-05-04 14:47 | 55.62838 | 12.64109 | 22 ft | 4 kts | 67° |
| 2026-05-04 14:47 | 55.62828 | 12.64065 | 22 ft | 4 kts | 65° |
| 2026-05-04 14:48 | 55.62816 | 12.64022 | 22 ft | 4 kts | 58° |
| 2026-05-04 14:48 | 55.62799 | 12.63988 | 22 ft | 3 kts | 33° |
| 2026-05-04 14:48 | 55.62781 | 12.63964 | 22 ft | 4 kts | 54° |
| 2026-05-04 14:48 | 55.62774 | 12.63925 | 26 ft | 4 kts | 103° |
| 2026-05-04 14:49 | 55.62785 | 12.63883 | 22 ft | 4 kts | 122° |
| 2026-05-04 14:49 | 55.62793 | 12.63860 | 22 ft | 0 kts | 115° |
| 2026-05-04 14:51 | 55.62788 | 12.63877 | 22 ft | 6 kts | 115° |
| 2026-05-04 14:51 | 55.62751 | 12.63914 | 22 ft | 8 kts | 183° |
| 2026-05-04 14:52 | 55.62696 | 12.63869 | 22 ft | 10 kts | 213° |
| 2026-05-04 14:52 | 55.62634 | 12.63799 | 24 ft | 11 kts | 204° |
| 2026-05-04 14:52 | 55.62550 | 12.63770 | 23 ft | 13 kts | 175° |
| 2026-05-04 14:52 | 55.62461 | 12.63825 | 22 ft | 14 kts | 146° |
| 2026-05-04 14:53 | 55.62395 | 12.63965 | 21 ft | 16 kts | 123° |
| 2026-05-04 14:53 | 55.62333 | 12.64132 | 20 ft | 15 kts | 123° |
| 2026-05-04 14:53 | 55.62293 | 12.64240 | 20 ft | 7 kts | 123° |
| 2026-05-04 14:53 | 55.62277 | 12.64285 | 21 ft | 0 kts | 123° |
| 2026-05-04 14:54 | 55.62275 | 12.64290 | 21 ft | 5 kts | 123° |
| 2026-05-04 14:54 | 55.62212 | 12.64357 | 20 ft | 13 kts | 198° |
| 2026-05-04 14:54 | 55.62122 | 12.64286 | 22 ft | 15 kts | 206° |
| 2026-05-04 14:54 | 55.62023 | 12.64200 | 22 ft | 17 kts | 206° |
| 2026-05-04 14:55 | 55.61915 | 12.64109 | 22 ft | 18 kts | 205° |
| 2026-05-04 14:55 | 55.61791 | 12.64076 | 23 ft | 18 kts | 175° |
| 2026-05-04 14:55 | 55.61680 | 12.64091 | 25 ft | 17 kts | 180° |
| 2026-05-04 14:55 | 55.61541 | 12.63944 | 25 ft | 48 kts | 223° |
| 2026-05-04 14:56 | 55.61101 | 12.63265 | 29 ft | 117 kts | 221° |
| 2026-05-04 14:56 | 55.60350 | 12.62099 | 50 ft | 164 kts | 223° |
| 2026-05-04 14:56 | 55.59496 | 12.60812 | 697 ft | 158 kts | 226° |
| 2026-05-04 14:56 | 55.58651 | 12.59483 | 1204 ft | 172 kts | 226° |
| 2026-05-04 14:57 | 55.57698 | 12.57998 | 1663 ft | 192 kts | 224° |
| 2026-05-04 14:57 | 55.56659 | 12.56397 | 2220 ft | 205 kts | 224° |
| 2026-05-04 14:57 | 55.55401 | 12.54881 | 2636 ft | 233 kts | 215° |
| 2026-05-04 14:57 | 55.54001 | 12.53232 | 3184 ft | 249 kts | 218° |
| 2026-05-04 14:58 | 55.52556 | 12.51458 | 3974 ft | 255 kts | 219° |
| 2026-05-04 14:58 | 55.51095 | 12.49662 | 4904 ft | 257 kts | 219° |
| 2026-05-04 14:58 | 55.49602 | 12.47830 | 5859 ft | 257 kts | 219° |
| 2026-05-04 14:58 | 55.48129 | 12.46026 | 6753 ft | 259 kts | 219° |
| 2026-05-04 14:59 | 55.46643 | 12.44207 | 7584 ft | 261 kts | 219° |
| 2026-05-04 14:59 | 55.45144 | 12.42374 | 8387 ft | 264 kts | 219° |
| 2026-05-04 14:59 | 55.42090 | 12.38648 | 9978 ft | 270 kts | 218° |
| 2026-05-04 15:00 | 55.40504 | 12.36709 | 10367 ft | 287 kts | 218° |
| 2026-05-04 15:00 | 55.38803 | 12.34633 | 10641 ft | 307 kts | 218° |
| 2026-05-04 15:00 | 55.36989 | 12.32426 | 10884 ft | 327 kts | 218° |
| 2026-05-04 15:01 | 55.33135 | 12.27756 | 12015 ft | 342 kts | 218° |
| 2026-05-04 15:01 | 55.31169 | 12.25378 | 12759 ft | 345 kts | 218° |
| 2026-05-04 15:01 | 55.29186 | 12.22981 | 13487 ft | 348 kts | 218° |
| 2026-05-04 15:01 | 55.27183 | 12.20560 | 14162 ft | 351 kts | 218° |
| 2026-05-04 15:02 | 55.25160 | 12.18121 | 14804 ft | 354 kts | 218° |
| 2026-05-04 15:02 | 55.23124 | 12.15668 | 15448 ft | 357 kts | 218° |
| 2026-05-04 15:02 | 55.21069 | 12.13195 | 16093 ft | 360 kts | 218° |
| 2026-05-04 15:02 | 55.19026 | 12.10639 | 16737 ft | 362 kts | 220° |
| 2026-05-04 15:03 | 55.16986 | 12.08026 | 17340 ft | 365 kts | 220° |
| 2026-05-04 15:03 | 55.14926 | 12.05386 | 17960 ft | 369 kts | 220° |
| 2026-05-04 15:03 | 55.12852 | 12.02729 | 18534 ft | 372 kts | 220° |
| 2026-05-04 15:03 | 55.10753 | 12.00048 | 19077 ft | 375 kts | 220° |
| 2026-05-04 15:04 | 55.08643 | 11.97359 | 19627 ft | 377 kts | 220° |
| 2026-05-04 15:04 | 55.06542 | 11.94684 | 20166 ft | 380 kts | 220° |
| 2026-05-04 15:04 | 55.04402 | 11.91964 | 20699 ft | 382 kts | 220° |
| 2026-05-04 15:04 | 55.02245 | 11.89224 | 21236 ft | 385 kts | 220° |
| 2026-05-04 15:05 | 55.00045 | 11.86432 | 21748 ft | 388 kts | 220° |
| 2026-05-04 15:05 | 54.97854 | 11.83656 | 22261 ft | 390 kts | 220° |
| 2026-05-04 15:05 | 54.95655 | 11.80878 | 22758 ft | 393 kts | 219° |
| 2026-05-04 15:05 | 54.93432 | 11.78075 | 23239 ft | 395 kts | 219° |
| 2026-05-04 15:06 | 54.91206 | 11.75268 | 23733 ft | 396 kts | 219° |
| 2026-05-04 15:06 | 54.89001 | 11.72490 | 24178 ft | 397 kts | 219° |
| 2026-05-04 15:06 | 54.86761 | 11.69669 | 24630 ft | 399 kts | 220° |
| 2026-05-04 15:07 | 54.82255 | 11.64008 | 25513 ft | 401 kts | 220° |
| 2026-05-04 15:07 | 54.79991 | 11.61174 | 25941 ft | 402 kts | 220° |
| 2026-05-04 15:07 | 54.77720 | 11.58335 | 26354 ft | 403 kts | 220° |
| 2026-05-04 15:07 | 54.75440 | 11.55490 | 26758 ft | 404 kts | 220° |
| 2026-05-04 15:08 | 54.73161 | 11.52648 | 27167 ft | 405 kts | 220° |
| 2026-05-04 15:08 | 54.70865 | 11.49787 | 27541 ft | 406 kts | 220° |
| 2026-05-04 15:08 | 54.68577 | 11.46941 | 27988 ft | 406 kts | 220° |
| 2026-05-04 15:08 | 54.66284 | 11.44098 | 28381 ft | 406 kts | 220° |
| 2026-05-04 15:09 | 54.63991 | 11.41257 | 28791 ft | 405 kts | 220° |
| 2026-05-04 15:09 | 54.61703 | 11.38425 | 29268 ft | 403 kts | 220° |
| 2026-05-04 15:09 | 54.59434 | 11.35620 | 29772 ft | 400 kts | 220° |
| 2026-05-04 15:10 | 54.54899 | 11.30017 | 30332 ft | 402 kts | 220° |
| 2026-05-04 15:10 | 54.52614 | 11.27226 | 30580 ft | 403 kts | 220° |
| 2026-05-04 15:10 | 54.48024 | 11.21654 | 31059 ft | 404 kts | 220° |
| 2026-05-04 15:11 | 54.45729 | 11.18868 | 31386 ft | 403 kts | 220° |
| 2026-05-04 15:11 | 54.43442 | 11.16096 | 31693 ft | 402 kts | 220° |
| 2026-05-04 15:11 | 54.41160 | 11.13334 | 31945 ft | 402 kts | 220° |
| 2026-05-04 15:11 | 54.38872 | 11.10566 | 32190 ft | 402 kts | 219° |
| 2026-05-04 15:12 | 54.36584 | 11.07807 | 32427 ft | 402 kts | 219° |
| 2026-05-04 15:12 | 54.34293 | 11.05042 | 32659 ft | 403 kts | 219° |
| 2026-05-04 15:12 | 54.31942 | 11.02415 | 32888 ft | 406 kts | 214° |
| 2026-05-04 15:12 | 54.29346 | 11.00422 | 33091 ft | 414 kts | 204° |
| 2026-05-04 15:13 | 54.26522 | 10.99257 | 33304 ft | 420 kts | 196° |
| 2026-05-04 15:13 | 54.23636 | 10.98458 | 33491 ft | 421 kts | 195° |
| 2026-05-04 15:13 | 54.20742 | 10.97699 | 33748 ft | 420 kts | 195° |
| 2026-05-04 15:13 | 54.17855 | 10.96920 | 34002 ft | 420 kts | 195° |
| 2026-05-04 15:14 | 54.14972 | 10.96124 | 34190 ft | 419 kts | 195° |
| 2026-05-04 15:14 | 54.12089 | 10.95315 | 34357 ft | 420 kts | 195° |
| 2026-05-04 15:14 | 54.09208 | 10.94506 | 34509 ft | 421 kts | 195° |
| 2026-05-04 15:14 | 54.06357 | 10.93706 | 34668 ft | 421 kts | 195° |
| 2026-05-04 15:15 | 54.03465 | 10.92898 | 34800 ft | 422 kts | 195° |
| 2026-05-04 15:15 | 54.00568 | 10.92088 | 34955 ft | 422 kts | 195° |
| 2026-05-04 15:15 | 53.97663 | 10.91278 | 35101 ft | 422 kts | 195° |
| 2026-05-04 15:16 | 53.91830 | 10.89653 | 35406 ft | 423 kts | 194° |
| 2026-05-04 15:16 | 53.88926 | 10.88846 | 35542 ft | 423 kts | 194° |
| 2026-05-04 15:16 | 53.83146 | 10.87240 | 35803 ft | 424 kts | 194° |
| 2026-05-04 15:17 | 53.80234 | 10.86435 | 35930 ft | 425 kts | 194° |
| 2026-05-04 15:17 | 53.74394 | 10.84820 | 36133 ft | 426 kts | 194° |
| 2026-05-04 15:17 | 53.71466 | 10.84013 | 36242 ft | 427 kts | 194° |
| 2026-05-04 15:18 | 53.68537 | 10.83208 | 36348 ft | 427 kts | 194° |
| 2026-05-04 15:18 | 53.65600 | 10.82401 | 36459 ft | 428 kts | 194° |
| 2026-05-04 15:18 | 53.62665 | 10.81595 | 36566 ft | 428 kts | 194° |
| 2026-05-04 15:19 | 53.56780 | 10.79981 | 36771 ft | 429 kts | 194° |
| 2026-05-04 15:19 | 53.53834 | 10.79175 | 36874 ft | 429 kts | 194° |
| 2026-05-04 15:19 | 53.47933 | 10.77563 | 37078 ft | 429 kts | 194° |
| 2026-05-04 15:20 | 53.44980 | 10.76761 | 37180 ft | 430 kts | 194° |
| 2026-05-04 15:20 | 53.42026 | 10.75960 | 37277 ft | 430 kts | 194° |
| 2026-05-04 15:20 | 53.36118 | 10.74357 | 37441 ft | 430 kts | 194° |
| 2026-05-04 15:21 | 53.30199 | 10.72753 | 37602 ft | 431 kts | 193° |
| 2026-05-04 15:21 | 53.24266 | 10.71155 | 37791 ft | 431 kts | 194° |
| 2026-05-04 15:22 | 53.21319 | 10.70363 | 37946 ft | 428 kts | 194° |
| 2026-05-04 15:22 | 53.12531 | 10.68006 | 37951 ft | 425 kts | 194° |
| 2026-05-04 15:23 | 53.06695 | 10.66442 | 37949 ft | 425 kts | 194° |
| 2026-05-04 15:23 | 53.01839 | 10.65149 | 37948 ft | 425 kts | 194° |
| 2026-05-04 15:24 | 52.90150 | 10.62039 | 37951 ft | 425 kts | 194° |
| 2026-05-04 15:25 | 52.84312 | 10.60496 | 37958 ft | 425 kts | 194° |
| 2026-05-04 15:26 | 52.75558 | 10.58186 | 37958 ft | 422 kts | 194° |
| 2026-05-04 15:26 | 52.66884 | 10.55905 | 37959 ft | 421 kts | 194° |
| 2026-05-04 15:27 | 52.58309 | 10.53664 | 37956 ft | 411 kts | 194° |
| 2026-05-04 15:28 | 52.49809 | 10.51445 | 37949 ft | 417 kts | 194° |
| 2026-05-04 15:29 | 52.41201 | 10.49209 | 37965 ft | 418 kts | 194° |
| 2026-05-04 15:30 | 52.21236 | 10.44066 | 37931 ft | 406 kts | 194° |
| 2026-05-04 15:31 | 52.12807 | 10.41900 | 37952 ft | 413 kts | 194° |
| 2026-05-04 15:32 | 51.98536 | 10.38264 | 37967 ft | 415 kts | 193° |
| 2026-05-04 15:34 | 51.84446 | 10.34694 | 37965 ft | 408 kts | 193° |
| 2026-05-04 15:34 | 51.75962 | 10.32553 | 37968 ft | 414 kts | 193° |
| 2026-05-04 15:35 | 51.67398 | 10.30402 | 37972 ft | 415 kts | 193° |
| 2026-05-04 15:36 | 51.58878 | 10.28273 | 37946 ft | 406 kts | 193° |
| 2026-05-04 15:36 | 51.53289 | 10.26879 | 37963 ft | 408 kts | 193° |
| 2026-05-04 15:37 | 51.47643 | 10.25473 | 37970 ft | 412 kts | 193° |
| 2026-05-04 15:37 | 51.41945 | 10.24058 | 37969 ft | 416 kts | 193° |
| 2026-05-04 15:38 | 51.36218 | 10.22643 | 37947 ft | 416 kts | 193° |
| 2026-05-04 15:38 | 51.30469 | 10.21795 | 36761 ft | 426 kts | 185° |
| 2026-05-04 15:39 | 51.27441 | 10.21745 | 35647 ft | 433 kts | 185° |
| 2026-05-04 15:39 | 51.24428 | 10.21720 | 34818 ft | 432 kts | 185° |
| 2026-05-04 15:39 | 51.18408 | 10.21631 | 32978 ft | 433 kts | 185° |
| 2026-05-04 15:40 | 51.15381 | 10.21571 | 32006 ft | 434 kts | 185° |
| 2026-05-04 15:40 | 51.12385 | 10.21513 | 31418 ft | 427 kts | 185° |
| 2026-05-04 15:40 | 51.09431 | 10.21461 | 31147 ft | 424 kts | 185° |
| 2026-05-04 15:40 | 51.06468 | 10.21404 | 31028 ft | 424 kts | 184° |
| 2026-05-04 15:41 | 51.03527 | 10.21349 | 30710 ft | 422 kts | 184° |
| 2026-05-04 15:41 | 51.00568 | 10.21294 | 29456 ft | 428 kts | 184° |
| 2026-05-04 15:41 | 50.97560 | 10.21242 | 28191 ft | 435 kts | 184° |
| 2026-05-04 15:41 | 50.94543 | 10.21189 | 27356 ft | 432 kts | 184° |
| 2026-05-04 15:42 | 50.91551 | 10.21138 | 26569 ft | 428 kts | 184° |
| 2026-05-04 15:42 | 50.88596 | 10.21088 | 25810 ft | 423 kts | 183° |
| 2026-05-04 15:42 | 50.85670 | 10.20922 | 25017 ft | 417 kts | 189° |
| 2026-05-04 15:42 | 50.82881 | 10.19819 | 24245 ft | 411 kts | 202° |
| 2026-05-04 15:43 | 50.80408 | 10.17777 | 23530 ft | 405 kts | 214° |
| 2026-05-04 15:43 | 50.78260 | 10.14863 | 22676 ft | 401 kts | 227° |
| 2026-05-04 15:43 | 50.76606 | 10.11345 | 21859 ft | 399 kts | 238° |
| 2026-05-04 15:43 | 50.75335 | 10.07468 | 21080 ft | 396 kts | 242° |
| 2026-05-04 15:44 | 50.74134 | 10.03576 | 20311 ft | 391 kts | 242° |
| 2026-05-04 15:44 | 50.72932 | 9.99730 | 19537 ft | 389 kts | 242° |
| 2026-05-04 15:44 | 50.71730 | 9.95920 | 18787 ft | 387 kts | 242° |
| 2026-05-04 15:44 | 50.70538 | 9.92194 | 18072 ft | 384 kts | 242° |
| 2026-05-04 15:45 | 50.69318 | 9.88407 | 17248 ft | 381 kts | 242° |
| 2026-05-04 15:45 | 50.68124 | 9.84704 | 16553 ft | 376 kts | 242° |
| 2026-05-04 15:45 | 50.66952 | 9.81062 | 15997 ft | 369 kts | 242° |
| 2026-05-04 15:45 | 50.65821 | 9.77560 | 15494 ft | 361 kts | 242° |
| 2026-05-04 15:46 | 50.64692 | 9.74058 | 15024 ft | 354 kts | 241° |
| 2026-05-04 15:46 | 50.63543 | 9.70669 | 14533 ft | 349 kts | 236° |
| 2026-05-04 15:46 | 50.61999 | 9.67756 | 14046 ft | 346 kts | 220° |
| 2026-05-04 15:46 | 50.59994 | 9.65702 | 13545 ft | 344 kts | 204° |
| 2026-05-04 15:47 | 50.57782 | 9.64301 | 13083 ft | 342 kts | 200° |
| 2026-05-04 15:47 | 50.55559 | 9.63008 | 12610 ft | 340 kts | 200° |
| 2026-05-04 15:47 | 50.53349 | 9.61708 | 12143 ft | 338 kts | 200° |
| 2026-05-04 15:47 | 50.51156 | 9.60386 | 11644 ft | 336 kts | 202° |
| 2026-05-04 15:48 | 50.49107 | 9.58688 | 11189 ft | 330 kts | 215° |
| 2026-05-04 15:48 | 50.47498 | 9.56199 | 10978 ft | 320 kts | 232° |
| 2026-05-04 15:48 | 50.45887 | 9.50171 | 10902 ft | 283 kts | 251° |
| 2026-05-04 15:49 | 50.45379 | 9.47278 | 10720 ft | 271 kts | 252° |
| 2026-05-04 15:49 | 50.44872 | 9.44460 | 10489 ft | 266 kts | 251° |
| 2026-05-04 15:49 | 50.44343 | 9.41595 | 10257 ft | 285 kts | 251° |
| 2026-05-04 15:49 | 50.43784 | 9.38622 | 10106 ft | 283 kts | 251° |
| 2026-05-04 15:50 | 50.43227 | 9.35668 | 9995 ft | 282 kts | 250° |
| 2026-05-04 15:50 | 50.42669 | 9.32730 | 9917 ft | 281 kts | 250° |
| 2026-05-04 15:50 | 50.42111 | 9.29798 | 9837 ft | 281 kts | 250° |
| 2026-05-04 15:50 | 50.41553 | 9.26864 | 9767 ft | 281 kts | 250° |
| 2026-05-04 15:51 | 50.40969 | 9.23970 | 9481 ft | 276 kts | 248° |
| 2026-05-04 15:51 | 50.40324 | 9.21155 | 9034 ft | 274 kts | 247° |
| 2026-05-04 15:51 | 50.39574 | 9.18442 | 8572 ft | 269 kts | 235° |
| 2026-05-04 15:51 | 50.38322 | 9.16329 | 8123 ft | 264 kts | 214° |
| 2026-05-04 15:52 | 50.36686 | 9.15113 | 7656 ft | 261 kts | 194° |
| 2026-05-04 15:52 | 50.34880 | 9.14900 | 7190 ft | 262 kts | 176° |
| 2026-05-04 15:52 | 50.33084 | 9.15379 | 6749 ft | 262 kts | 169° |
| 2026-05-04 15:52 | 50.31378 | 9.16399 | 6296 ft | 266 kts | 149° |
| 2026-05-04 15:53 | 50.30093 | 9.18491 | 5786 ft | 273 kts | 122° |
| 2026-05-04 15:53 | 50.29570 | 9.21347 | 5283 ft | 279 kts | 92° |
| 2026-05-04 15:53 | 50.29936 | 9.24321 | 5028 ft | 282 kts | 71° |
| 2026-05-04 15:53 | 50.30274 | 9.27329 | 4967 ft | 281 kts | 96° |
| 2026-05-04 15:54 | 50.29727 | 9.30226 | 4966 ft | 278 kts | 121° |
| 2026-05-04 15:54 | 50.28463 | 9.32458 | 4989 ft | 273 kts | 148° |
| 2026-05-04 15:54 | 50.26730 | 9.33550 | 4994 ft | 269 kts | 174° |
| 2026-05-04 15:54 | 50.24898 | 9.33334 | 4998 ft | 264 kts | 200° |
| 2026-05-04 15:55 | 50.23331 | 9.31922 | 4997 ft | 263 kts | 224° |
| 2026-05-04 15:55 | 50.22300 | 9.29627 | 4996 ft | 261 kts | 247° |
| 2026-05-04 15:55 | 50.21702 | 9.26970 | 5007 ft | 259 kts | 252° |
| 2026-05-04 15:55 | 50.21153 | 9.24308 | 5004 ft | 257 kts | 252° |
| 2026-05-04 15:56 | 50.20579 | 9.21634 | 4997 ft | 261 kts | 251° |
| 2026-05-04 15:56 | 50.19990 | 9.18976 | 4994 ft | 260 kts | 249° |
| 2026-05-04 15:56 | 50.19395 | 9.16348 | 4991 ft | 250 kts | 249° |
| 2026-05-04 15:56 | 50.18833 | 9.13888 | 4980 ft | 232 kts | 249° |
| 2026-05-04 15:57 | 50.18296 | 9.11550 | 4973 ft | 228 kts | 248° |
| 2026-05-04 15:57 | 50.17751 | 9.09208 | 4983 ft | 230 kts | 249° |
| 2026-05-04 15:57 | 50.17208 | 9.06876 | 4989 ft | 229 kts | 248° |
| 2026-05-04 15:57 | 50.16665 | 9.04540 | 4994 ft | 227 kts | 248° |
| 2026-05-04 15:58 | 50.16147 | 9.02307 | 4977 ft | 208 kts | 248° |
| 2026-05-04 15:58 | 50.15681 | 9.00304 | 5007 ft | 187 kts | 247° |
| 2026-05-04 15:58 | 50.15259 | 8.98497 | 4985 ft | 166 kts | 247° |
| 2026-05-04 15:58 | 50.14884 | 8.96890 | 4972 ft | 152 kts | 247° |
| 2026-05-04 15:59 | 50.14502 | 8.95358 | 4973 ft | 151 kts | 246° |
| 2026-05-04 15:59 | 50.14146 | 8.93833 | 4986 ft | 152 kts | 248° |
| 2026-05-04 15:59 | 50.13784 | 8.92294 | 4988 ft | 151 kts | 247° |
| 2026-05-04 15:59 | 50.13424 | 8.90751 | 4992 ft | 152 kts | 247° |
| 2026-05-04 16:00 | 50.13068 | 8.89209 | 4994 ft | 151 kts | 248° |
| 2026-05-04 16:00 | 50.12733 | 8.87641 | 4988 ft | 150 kts | 249° |
| 2026-05-04 16:00 | 50.12381 | 8.86101 | 4897 ft | 151 kts | 248° |
| 2026-05-04 16:00 | 50.12019 | 8.84564 | 4747 ft | 151 kts | 248° |
| 2026-05-04 16:01 | 50.11657 | 8.83035 | 4550 ft | 150 kts | 248° |
| 2026-05-04 16:01 | 50.11295 | 8.81518 | 4350 ft | 149 kts | 248° |
| 2026-05-04 16:01 | 50.10937 | 8.80011 | 4141 ft | 148 kts | 248° |
| 2026-05-04 16:01 | 50.10580 | 8.78513 | 3935 ft | 147 kts | 249° |
| 2026-05-04 16:02 | 50.10224 | 8.77020 | 3733 ft | 147 kts | 250° |
| 2026-05-04 16:02 | 50.09866 | 8.75518 | 3524 ft | 148 kts | 251° |
| 2026-05-04 16:02 | 50.09148 | 8.72505 | 3091 ft | 152 kts | 252° |
| 2026-05-04 16:03 | 50.08781 | 8.70967 | 2875 ft | 151 kts | 253° |
| 2026-05-04 16:03 | 50.08419 | 8.69445 | 2672 ft | 150 kts | 253° |
| 2026-05-04 16:03 | 50.08056 | 8.67925 | 2482 ft | 149 kts | 253° |
| 2026-05-04 16:03 | 50.07695 | 8.66412 | 2240 ft | 150 kts | 252° |
| 2026-05-04 16:04 | 50.07336 | 8.64906 | 2038 ft | 146 kts | 252° |
| 2026-05-04 16:04 | 50.06635 | 8.61983 | 1594 ft | 143 kts | 252° |
| 2026-05-04 16:04 | 50.06287 | 8.60535 | 1401 ft | 144 kts | 251° |
| 2026-05-04 16:05 | 50.05937 | 8.59068 | 1195 ft | 146 kts | 252° |
| 2026-05-04 16:05 | 50.05595 | 8.57592 | 988 ft | 144 kts | 251° |
| 2026-05-04 16:05 | 50.04891 | 8.54699 | 588 ft | 143 kts | 252° |
| 2026-05-04 16:06 | 50.04544 | 8.53241 | 403 ft | 144 kts | 253° |
| 2026-05-04 16:06 | 50.03985 | 8.51025 | 332 ft | 20 kts | 225° |
| 2026-05-04 16:07 | 50.03839 | 8.50840 | 333 ft | 17 kts | 195° |
| 2026-05-04 16:07 | 50.03889 | 8.51374 | 337 ft | 22 kts | 70° |
| 2026-05-04 16:08 | 50.03939 | 8.51583 | 350 ft | 20 kts | 70° |
| 2026-05-04 16:08 | 50.04081 | 8.52177 | 353 ft | 24 kts | 69° |
| 2026-05-04 16:09 | 50.04208 | 8.52704 | 357 ft | 28 kts | 70° |
| 2026-05-04 16:09 | 50.04316 | 8.53158 | 365 ft | 22 kts | 69° |
| 2026-05-04 16:10 | 50.04404 | 8.53661 | 381 ft | 26 kts | 83° |
| 2026-05-04 16:11 | 50.04453 | 8.54394 | 377 ft | 17 kts | 88° |
| 2026-05-04 16:11 | 50.04433 | 8.54573 | 372 ft | 17 kts | 114° |
| 2026-05-04 16:12 | 50.04239 | 8.54814 | 357 ft | 7 kts | 161° |
| 2026-05-04 16:12 | 50.04076 | 8.54902 | 356 ft | 0 kts | 160° |
| 2026-05-04 16:13 | 50.04073 | 8.54904 | 356 ft | 0 kts | 160° |
| 2026-05-04 16:15 | 50.03901 | 8.55009 | 363 ft | 11 kts | 161° |
| 2026-05-04 16:16 | 50.03876 | 8.55226 | 360 ft | 14 kts | 69° |
| 2026-05-04 16:16 | 50.03988 | 8.55701 | 354 ft | 17 kts | 70° |
| 2026-05-04 16:17 | 50.04075 | 8.56063 | 360 ft | 19 kts | 70° |
| 2026-05-04 16:18 | 50.04210 | 8.56629 | 361 ft | 7 kts | 68° |
| 2026-05-04 16:18 | 50.04218 | 8.56662 | 362 ft | 0 kts | 68° |
| 2026-05-04 16:19 | 50.04246 | 8.56789 | 366 ft | 11 kts | 71° |
| 2026-05-04 16:19 | 50.04318 | 8.57078 | 370 ft | 16 kts | 70° |
| 2026-05-04 16:20 | 50.04442 | 8.57600 | 375 ft | 18 kts | 70° |
| 2026-05-04 16:20 | 50.04518 | 8.57914 | 371 ft | 9 kts | 69° |
| 2026-05-04 16:21 | 50.04685 | 8.57970 | 363 ft | 14 kts | 340° |
| 2026-05-04 16:22 | 50.04789 | 8.58089 | 363 ft | 5 kts | 69° |
| 2026-05-04 16:22 | 50.04747 | 8.58173 | 368 ft | 1 kts | 160° |
| 2026-05-04 16:23 | 50.04744 | 8.58175 | 368 ft | 0 kts | 160° |